sensor_id;sensor_type;location;lat;lon;timestamp;temperature;humidity
39919;DHT22;25589;51.552;13.424;2023-10-31T00:01:17;15.20;99.90
39919;DHT22;25589;51.552;13.424;2023-10-31T00:03:42;15.10;99.90
39919;DHT22;25589;51.552;13.424;2023-10-31T00:06:10;15.10;99.90
39919;DHT22;25589;51.552;13.424;2023-10-31T00:08:35;15.30;99.90
39919;DHT22;25589;51.552;13.424;2023-10-31T00:11:01;15.00;99.90
39919;DHT22;25589;51.552;13.424;2023-10-31T00:13:26;15.30;99.90
39919;DHT22;25589;51.552;13.424;2023-10-31T00:15:52;15.00;99.90
39919;DHT22;25589;51.552;13.424;2023-10-31T00:18:17;15.00;99.90
39919;DHT22;25589;51.552;13.424;2023-10-31T00:20:43;15.00;99.90
39919;DHT22;25589;51.552;13.424;2023-10-31T00:23:08;15.00;99.90
39919;DHT22;25589;51.552;13.424;2023-10-31T00:25:34;15.00;99.90
39919;DHT22;25589;51.552;13.424;2023-10-31T00:28:00;15.30;99.90
39919;DHT22;25589;51.552;13.424;2023-10-31T00:30:25;15.00;99.90
39919;DHT22;25589;51.552;13.424;2023-10-31T00:32:51;14.70;99.90
39919;DHT22;25589;51.552;13.424;2023-10-31T00:35:16;15.00;99.90
39919;DHT22;25589;51.552;13.424;2023-10-31T00:37:42;15.10;99.90
39919;DHT22;25589;51.552;13.424;2023-10-31T00:40:08;15.00;99.90
39919;DHT22;25589;51.552;13.424;2023-10-31T00:42:37;15.00;99.90
39919;DHT22;25589;51.552;13.424;2023-10-31T00:45:03;15.00;99.90
39919;DHT22;25589;51.552;13.424;2023-10-31T00:47:29;15.00;99.90
39919;DHT22;25589;51.552;13.424;2023-10-31T00:49:54;15.00;99.90
39919;DHT22;25589;51.552;13.424;2023-10-31T00:52:20;15.00;99.90
39919;DHT22;25589;51.552;13.424;2023-10-31T00:54:45;15.00;99.90
39919;DHT22;25589;51.552;13.424;2023-10-31T00:57:11;15.00;99.90
39919;DHT22;25589;51.552;13.424;2023-10-31T00:59:36;15.00;99.90
39919;DHT22;25589;51.552;13.424;2023-10-31T01:02:03;14.90;99.90
39919;DHT22;25589;51.552;13.424;2023-10-31T01:04:29;15.00;99.90
39919;DHT22;25589;51.552;13.424;2023-10-31T01:06:54;14.80;99.90
39919;DHT22;25589;51.552;13.424;2023-10-31T01:09:20;14.90;99.90
39919;DHT22;25589;51.552;13.424;2023-10-31T01:11:46;14.90;99.90
39919;DHT22;25589;51.552;13.424;2023-10-31T01:14:11;14.90;99.90
39919;DHT22;25589;51.552;13.424;2023-10-31T01:16:37;14.80;99.90
39919;DHT22;25589;51.552;13.424;2023-10-31T01:19:02;14.80;99.90
39919;DHT22;25589;51.552;13.424;2023-10-31T01:21:28;14.80;99.90
39919;DHT22;25589;51.552;13.424;2023-10-31T01:23:54;14.80;99.90
39919;DHT22;25589;51.552;13.424;2023-10-31T01:26:20;14.70;99.90
39919;DHT22;25589;51.552;13.424;2023-10-31T01:28:45;14.60;99.90
39919;DHT22;25589;51.552;13.424;2023-10-31T01:31:11;14.60;99.90
39919;DHT22;25589;51.552;13.424;2023-10-31T01:33:36;14.60;99.90
39919;DHT22;25589;51.552;13.424;2023-10-31T01:36:02;14.50;99.90
39919;DHT22;25589;51.552;13.424;2023-10-31T01:38:27;14.50;99.90
39919;DHT22;25589;51.552;13.424;2023-10-31T01:40:53;14.50;99.90
39919;DHT22;25589;51.552;13.424;2023-10-31T01:43:33;14.50;99.90
39919;DHT22;25589;51.552;13.424;2023-10-31T01:45:58;14.50;99.90
39919;DHT22;25589;51.552;13.424;2023-10-31T01:48:25;14.50;99.90
39919;DHT22;25589;51.552;13.424;2023-10-31T01:50:52;14.60;99.90
39919;DHT22;25589;51.552;13.424;2023-10-31T01:53:18;14.60;99.90
39919;DHT22;25589;51.552;13.424;2023-10-31T01:55:45;14.60;99.90
39919;DHT22;25589;51.552;13.424;2023-10-31T01:58:11;14.30;99.90
39919;DHT22;25589;51.552;13.424;2023-10-31T02:00:40;14.60;99.90
39919;DHT22;25589;51.552;13.424;2023-10-31T02:03:07;14.50;99.90
39919;DHT22;25589;51.552;13.424;2023-10-31T02:05:34;14.50;99.90
39919;DHT22;25589;51.552;13.424;2023-10-31T02:08:03;14.20;99.90
39919;DHT22;25589;51.552;13.424;2023-10-31T02:10:28;14.40;99.90
39919;DHT22;25589;51.552;13.424;2023-10-31T02:12:54;14.40;99.90
39919;DHT22;25589;51.552;13.424;2023-10-31T02:15:19;14.70;99.90
39919;DHT22;25589;51.552;13.424;2023-10-31T02:17:49;14.30;99.90
39919;DHT22;25589;51.552;13.424;2023-10-31T02:20:14;14.30;99.90
39919;DHT22;25589;51.552;13.424;2023-10-31T02:22:40;14.30;99.90
39919;DHT22;25589;51.552;13.424;2023-10-31T02:25:18;14.30;99.90
39919;DHT22;25589;51.552;13.424;2023-10-31T02:27:44;14.30;99.90
39919;DHT22;25589;51.552;13.424;2023-10-31T02:30:10;13.70;99.90
39919;DHT22;25589;51.552;13.424;2023-10-31T02:32:35;14.20;99.90
39919;DHT22;25589;51.552;13.424;2023-10-31T02:35:01;14.30;99.90
39919;DHT22;25589;51.552;13.424;2023-10-31T02:37:27;14.20;99.90
39919;DHT22;25589;51.552;13.424;2023-10-31T02:39:52;13.80;99.90
39919;DHT22;25589;51.552;13.424;2023-10-31T02:44:44;14.50;99.90
39919;DHT22;25589;51.552;13.424;2023-10-31T02:47:09;14.20;99.90
39919;DHT22;25589;51.552;13.424;2023-10-31T02:49:35;14.10;99.90
39919;DHT22;25589;51.552;13.424;2023-10-31T02:52:01;14.00;99.90
39919;DHT22;25589;51.552;13.424;2023-10-31T02:54:26;13.90;99.90
39919;DHT22;25589;51.552;13.424;2023-10-31T02:56:52;14.10;99.90
39919;DHT22;25589;51.552;13.424;2023-10-31T02:59:18;14.00;99.90
39919;DHT22;25589;51.552;13.424;2023-10-31T03:01:43;14.00;99.90
39919;DHT22;25589;51.552;13.424;2023-10-31T03:04:09;14.00;99.90
39919;DHT22;25589;51.552;13.424;2023-10-31T03:06:35;14.00;99.90
39919;DHT22;25589;51.552;13.424;2023-10-31T03:09:00;14.00;99.90
39919;DHT22;25589;51.552;13.424;2023-10-31T03:11:26;13.90;99.90
39919;DHT22;25589;51.552;13.424;2023-10-31T03:13:52;14.00;99.90
39919;DHT22;25589;51.552;13.424;2023-10-31T03:16:19;13.50;99.90
39919;DHT22;25589;51.552;13.424;2023-10-31T03:18:45;13.90;99.90
39919;DHT22;25589;51.552;13.424;2023-10-31T03:21:11;13.80;99.90
39919;DHT22;25589;51.552;13.424;2023-10-31T03:23:37;13.60;99.90
39919;DHT22;25589;51.552;13.424;2023-10-31T03:26:03;13.80;99.90
39919;DHT22;25589;51.552;13.424;2023-10-31T03:28:28;13.70;99.90
39919;DHT22;25589;51.552;13.424;2023-10-31T03:30:54;13.70;99.90
39919;DHT22;25589;51.552;13.424;2023-10-31T03:33:19;13.40;99.90
39919;DHT22;25589;51.552;13.424;2023-10-31T03:35:45;13.60;99.90
39919;DHT22;25589;51.552;13.424;2023-10-31T03:38:12;13.10;99.90
39919;DHT22;25589;51.552;13.424;2023-10-31T03:40:38;13.60;99.90
39919;DHT22;25589;51.552;13.424;2023-10-31T03:43:04;13.60;99.90
39919;DHT22;25589;51.552;13.424;2023-10-31T03:45:29;13.00;99.90
39919;DHT22;25589;51.552;13.424;2023-10-31T03:47:55;13.50;99.90
39919;DHT22;25589;51.552;13.424;2023-10-31T03:50:21;13.50;99.90
39919;DHT22;25589;51.552;13.424;2023-10-31T03:52:47;13.50;99.90
39919;DHT22;25589;51.552;13.424;2023-10-31T03:55:12;13.50;99.90
39919;DHT22;25589;51.552;13.424;2023-10-31T03:57:38;13.50;99.90
39919;DHT22;25589;51.552;13.424;2023-10-31T04:00:04;13.40;99.90
39919;DHT22;25589;51.552;13.424;2023-10-31T04:02:39;13.50;99.90
39919;DHT22;25589;51.552;13.424;2023-10-31T04:05:06;13.50;99.90
39919;DHT22;25589;51.552;13.424;2023-10-31T04:07:33;13.40;99.90
39919;DHT22;25589;51.552;13.424;2023-10-31T04:09:59;13.40;99.90
39919;DHT22;25589;51.552;13.424;2023-10-31T04:12:24;13.40;99.90
39919;DHT22;25589;51.552;13.424;2023-10-31T04:14:50;13.40;99.90
39919;DHT22;25589;51.552;13.424;2023-10-31T04:17:15;13.40;99.90
39919;DHT22;25589;51.552;13.424;2023-10-31T04:19:41;13.40;99.90
39919;DHT22;25589;51.552;13.424;2023-10-31T04:22:06;13.40;99.90
39919;DHT22;25589;51.552;13.424;2023-10-31T04:24:32;13.40;99.90
39919;DHT22;25589;51.552;13.424;2023-10-31T04:26:57;13.40;99.90
39919;DHT22;25589;51.552;13.424;2023-10-31T04:29:23;13.50;99.90
39919;DHT22;25589;51.552;13.424;2023-10-31T04:31:48;13.80;99.90
39919;DHT22;25589;51.552;13.424;2023-10-31T04:34:14;13.70;99.90
39919;DHT22;25589;51.552;13.424;2023-10-31T04:36:40;13.40;99.90
39919;DHT22;25589;51.552;13.424;2023-10-31T04:39:06;13.60;99.90
39919;DHT22;25589;51.552;13.424;2023-10-31T04:41:31;13.40;99.90
39919;DHT22;25589;51.552;13.424;2023-10-31T04:43:57;13.40;99.90
39919;DHT22;25589;51.552;13.424;2023-10-31T04:46:24;13.50;99.90
39919;DHT22;25589;51.552;13.424;2023-10-31T04:48:49;13.50;99.90
39919;DHT22;25589;51.552;13.424;2023-10-31T04:53:41;13.50;99.90
39919;DHT22;25589;51.552;13.424;2023-10-31T04:56:12;13.50;99.90
39919;DHT22;25589;51.552;13.424;2023-10-31T04:58:39;14.00;99.90
39919;DHT22;25589;51.552;13.424;2023-10-31T05:01:08;13.60;99.90
39919;DHT22;25589;51.552;13.424;2023-10-31T05:03:34;13.60;99.90
39919;DHT22;25589;51.552;13.424;2023-10-31T05:05:59;14.20;99.90
39919;DHT22;25589;51.552;13.424;2023-10-31T05:08:25;13.60;99.90
39919;DHT22;25589;51.552;13.424;2023-10-31T05:10:50;13.70;99.90
39919;DHT22;25589;51.552;13.424;2023-10-31T05:13:16;13.70;99.90
39919;DHT22;25589;51.552;13.424;2023-10-31T05:15:41;13.70;99.90
39919;DHT22;25589;51.552;13.424;2023-10-31T05:18:07;13.80;99.90
39919;DHT22;25589;51.552;13.424;2023-10-31T05:20:32;13.60;99.90
39919;DHT22;25589;51.552;13.424;2023-10-31T05:22:59;13.30;99.90
39919;DHT22;25589;51.552;13.424;2023-10-31T05:25:25;13.80;99.90
39919;DHT22;25589;51.552;13.424;2023-10-31T05:27:50;13.30;99.90
39919;DHT22;25589;51.552;13.424;2023-10-31T05:30:17;13.80;99.90
39919;DHT22;25589;51.552;13.424;2023-10-31T05:32:43;13.80;99.90
39919;DHT22;25589;51.552;13.424;2023-10-31T05:35:10;13.80;99.90
39919;DHT22;25589;51.552;13.424;2023-10-31T05:37:36;13.80;99.90
39919;DHT22;25589;51.552;13.424;2023-10-31T05:40:01;13.80;99.90
39919;DHT22;25589;51.552;13.424;2023-10-31T05:42:27;13.90;99.90
39919;DHT22;25589;51.552;13.424;2023-10-31T05:44:54;13.80;99.90
39919;DHT22;25589;51.552;13.424;2023-10-31T05:47:20;14.00;99.90
39919;DHT22;25589;51.552;13.424;2023-10-31T05:49:46;13.60;99.90
39919;DHT22;25589;51.552;13.424;2023-10-31T05:52:12;13.80;99.90
39919;DHT22;25589;51.552;13.424;2023-10-31T05:54:37;14.10;99.90
39919;DHT22;25589;51.552;13.424;2023-10-31T05:57:03;13.80;99.90
39919;DHT22;25589;51.552;13.424;2023-10-31T05:59:28;13.90;99.90
39919;DHT22;25589;51.552;13.424;2023-10-31T06:01:54;13.80;99.90
39919;DHT22;25589;51.552;13.424;2023-10-31T06:04:20;13.80;99.90
39919;DHT22;25589;51.552;13.424;2023-10-31T06:06:45;13.80;99.90
39919;DHT22;25589;51.552;13.424;2023-10-31T06:09:11;13.80;99.90
39919;DHT22;25589;51.552;13.424;2023-10-31T06:11:39;14.20;99.90
39919;DHT22;25589;51.552;13.424;2023-10-31T06:14:04;13.90;99.90
39919;DHT22;25589;51.552;13.424;2023-10-31T06:16:30;13.60;99.90
39919;DHT22;25589;51.552;13.424;2023-10-31T06:18:56;13.90;99.90
39919;DHT22;25589;51.552;13.424;2023-10-31T06:21:21;13.90;99.90
39919;DHT22;25589;51.552;13.424;2023-10-31T06:23:47;13.90;99.90
39919;DHT22;25589;51.552;13.424;2023-10-31T06:26:12;13.50;99.90
39919;DHT22;25589;51.552;13.424;2023-10-31T06:28:38;13.90;99.90
39919;DHT22;25589;51.552;13.424;2023-10-31T06:31:05;13.90;99.90
39919;DHT22;25589;51.552;13.424;2023-10-31T06:33:31;13.80;99.90
39919;DHT22;25589;51.552;13.424;2023-10-31T06:35:56;13.50;99.90
39919;DHT22;25589;51.552;13.424;2023-10-31T06:38:22;14.40;99.90
39919;DHT22;25589;51.552;13.424;2023-10-31T06:40:47;13.70;99.90
39919;DHT22;25589;51.552;13.424;2023-10-31T06:43:13;13.60;99.90
39919;DHT22;25589;51.552;13.424;2023-10-31T06:45:38;13.80;99.90
39919;DHT22;25589;51.552;13.424;2023-10-31T06:48:04;13.80;99.90
39919;DHT22;25589;51.552;13.424;2023-10-31T06:50:32;13.60;99.90
39919;DHT22;25589;51.552;13.424;2023-10-31T06:52:58;13.80;99.90
39919;DHT22;25589;51.552;13.424;2023-10-31T06:55:24;14.20;99.90
39919;DHT22;25589;51.552;13.424;2023-10-31T06:57:49;13.80;99.90
39919;DHT22;25589;51.552;13.424;2023-10-31T07:00:15;13.80;99.90
39919;DHT22;25589;51.552;13.424;2023-10-31T07:02:41;13.80;99.90
39919;DHT22;25589;51.552;13.424;2023-10-31T07:05:06;13.80;99.90
39919;DHT22;25589;51.552;13.424;2023-10-31T07:07:32;13.70;99.90
39919;DHT22;25589;51.552;13.424;2023-10-31T07:09:58;14.20;99.90
39919;DHT22;25589;51.552;13.424;2023-10-31T07:12:24;13.30;99.90
39919;DHT22;25589;51.552;13.424;2023-10-31T07:14:50;15.50;99.90
39919;DHT22;25589;51.552;13.424;2023-10-31T07:17:15;12.70;99.90
39919;DHT22;25589;51.552;13.424;2023-10-31T07:19:41;13.60;99.90
39919;DHT22;25589;51.552;13.424;2023-10-31T07:22:06;13.60;99.90
39919;DHT22;25589;51.552;13.424;2023-10-31T07:24:32;13.50;99.90
39919;DHT22;25589;51.552;13.424;2023-10-31T07:26:58;13.60;99.90
39919;DHT22;25589;51.552;13.424;2023-10-31T07:29:23;13.60;99.90
39919;DHT22;25589;51.552;13.424;2023-10-31T07:31:49;13.60;99.90
39919;DHT22;25589;51.552;13.424;2023-10-31T07:34:14;13.60;99.90
39919;DHT22;25589;51.552;13.424;2023-10-31T07:36:41;13.60;99.90
39919;DHT22;25589;51.552;13.424;2023-10-31T07:39:06;13.60;99.90
39919;DHT22;25589;51.552;13.424;2023-10-31T07:41:33;13.60;99.90
39919;DHT22;25589;51.552;13.424;2023-10-31T07:43:58;13.60;99.90
39919;DHT22;25589;51.552;13.424;2023-10-31T07:46:24;13.60;99.90
39919;DHT22;25589;51.552;13.424;2023-10-31T07:48:50;13.60;99.90
39919;DHT22;25589;51.552;13.424;2023-10-31T07:51:15;13.60;99.90
39919;DHT22;25589;51.552;13.424;2023-10-31T07:53:41;13.60;99.90
39919;DHT22;25589;51.552;13.424;2023-10-31T07:56:15;13.70;99.90
39919;DHT22;25589;51.552;13.424;2023-10-31T07:58:41;13.20;99.90
39919;DHT22;25589;51.552;13.424;2023-10-31T08:01:07;13.60;99.90
39919;DHT22;25589;51.552;13.424;2023-10-31T08:03:38;13.70;99.90
39919;DHT22;25589;51.552;13.424;2023-10-31T08:06:05;13.70;99.90
39919;DHT22;25589;51.552;13.424;2023-10-31T08:08:31;13.80;99.90
39919;DHT22;25589;51.552;13.424;2023-10-31T08:10:57;14.00;99.90
39919;DHT22;25589;51.552;13.424;2023-10-31T08:13:25;13.90;99.90
39919;DHT22;25589;51.552;13.424;2023-10-31T08:15:51;14.30;99.90
39919;DHT22;25589;51.552;13.424;2023-10-31T08:18:16;14.00;99.90
39919;DHT22;25589;51.552;13.424;2023-10-31T08:20:42;14.00;99.90
39919;DHT22;25589;51.552;13.424;2023-10-31T08:23:09;14.10;99.90
39919;DHT22;25589;51.552;13.424;2023-10-31T08:25:34;14.10;99.90
39919;DHT22;25589;51.552;13.424;2023-10-31T08:28:00;14.30;99.90
39919;DHT22;25589;51.552;13.424;2023-10-31T08:30:25;14.20;99.90
39919;DHT22;25589;51.552;13.424;2023-10-31T08:32:51;14.20;99.90
39919;DHT22;25589;51.552;13.424;2023-10-31T08:35:16;14.30;99.90
39919;DHT22;25589;51.552;13.424;2023-10-31T08:37:42;15.20;99.90
39919;DHT22;25589;51.552;13.424;2023-10-31T08:40:08;14.40;99.90
39919;DHT22;25589;51.552;13.424;2023-10-31T08:42:34;14.50;99.90
39919;DHT22;25589;51.552;13.424;2023-10-31T08:44:59;14.60;99.90
39919;DHT22;25589;51.552;13.424;2023-10-31T08:47:25;14.20;99.90
39919;DHT22;25589;51.552;13.424;2023-10-31T08:49:50;14.40;99.90
39919;DHT22;25589;51.552;13.424;2023-10-31T08:52:16;13.80;99.90
39919;DHT22;25589;51.552;13.424;2023-10-31T08:54:43;14.20;99.90
39919;DHT22;25589;51.552;13.424;2023-10-31T08:57:08;14.10;99.90
39919;DHT22;25589;51.552;13.424;2023-10-31T08:59:34;14.10;99.90
39919;DHT22;25589;51.552;13.424;2023-10-31T09:02:01;14.00;99.90
39919;DHT22;25589;51.552;13.424;2023-10-31T09:04:27;13.60;99.90
39919;DHT22;25589;51.552;13.424;2023-10-31T09:06:52;14.10;99.90
39919;DHT22;25589;51.552;13.424;2023-10-31T09:09:18;14.60;99.90
39919;DHT22;25589;51.552;13.424;2023-10-31T09:11:43;14.10;99.90
39919;DHT22;25589;51.552;13.424;2023-10-31T09:14:09;14.20;99.90
39919;DHT22;25589;51.552;13.424;2023-10-31T09:16:35;13.90;99.90
39919;DHT22;25589;51.552;13.424;2023-10-31T09:19:00;14.10;99.90
39919;DHT22;25589;51.552;13.424;2023-10-31T09:21:26;14.10;99.90
39919;DHT22;25589;51.552;13.424;2023-10-31T09:23:51;14.00;99.90
39919;DHT22;25589;51.552;13.424;2023-10-31T09:26:17;14.40;99.90
39919;DHT22;25589;51.552;13.424;2023-10-31T09:28:43;14.70;99.90
39919;DHT22;25589;51.552;13.424;2023-10-31T09:31:18;14.00;99.90
39919;DHT22;25589;51.552;13.424;2023-10-31T09:33:47;13.90;99.90
39919;DHT22;25589;51.552;13.424;2023-10-31T09:36:13;14.50;99.90
39919;DHT22;25589;51.552;13.424;2023-10-31T09:38:39;13.90;99.90
39919;DHT22;25589;51.552;13.424;2023-10-31T09:41:06;13.90;99.90
39919;DHT22;25589;51.552;13.424;2023-10-31T09:43:31;14.30;99.90
39919;DHT22;25589;51.552;13.424;2023-10-31T09:45:57;14.00;99.90
39919;DHT22;25589;51.552;13.424;2023-10-31T09:48:23;13.90;99.90
39919;DHT22;25589;51.552;13.424;2023-10-31T09:50:49;13.90;99.90
39919;DHT22;25589;51.552;13.424;2023-10-31T09:53:16;14.00;99.90
39919;DHT22;25589;51.552;13.424;2023-10-31T09:55:45;14.00;99.90
39919;DHT22;25589;51.552;13.424;2023-10-31T09:58:11;14.00;99.90
39919;DHT22;25589;51.552;13.424;2023-10-31T10:00:37;13.60;99.90
39919;DHT22;25589;51.552;13.424;2023-10-31T10:03:07;14.30;99.90
39919;DHT22;25589;51.552;13.424;2023-10-31T10:05:35;14.20;99.90
39919;DHT22;25589;51.552;13.424;2023-10-31T10:08:00;14.20;99.90
39919;DHT22;25589;51.552;13.424;2023-10-31T10:10:26;14.50;99.90
39919;DHT22;25589;51.552;13.424;2023-10-31T10:12:52;14.30;99.90
39919;DHT22;25589;51.552;13.424;2023-10-31T10:15:18;14.30;99.90
39919;DHT22;25589;51.552;13.424;2023-10-31T10:17:51;14.30;99.90
39919;DHT22;25589;51.552;13.424;2023-10-31T10:20:17;13.80;99.90
39919;DHT22;25589;51.552;13.424;2023-10-31T10:22:43;13.80;99.90
39919;DHT22;25589;51.552;13.424;2023-10-31T10:25:12;13.90;99.90
39919;DHT22;25589;51.552;13.424;2023-10-31T10:27:39;14.40;99.90
39919;DHT22;25589;51.552;13.424;2023-10-31T10:30:08;14.50;99.90
39919;DHT22;25589;51.552;13.424;2023-10-31T10:32:34;15.00;99.90
39919;DHT22;25589;51.552;13.424;2023-10-31T10:34:59;14.50;99.90
39919;DHT22;25589;51.552;13.424;2023-10-31T10:37:26;14.60;99.90
39919;DHT22;25589;51.552;13.424;2023-10-31T10:39:53;14.60;99.90
39919;DHT22;25589;51.552;13.424;2023-10-31T10:42:44;14.10;99.90
39919;DHT22;25589;51.552;13.424;2023-10-31T10:45:13;14.30;99.90
39919;DHT22;25589;51.552;13.424;2023-10-31T10:47:39;15.30;99.90
39919;DHT22;25589;51.552;13.424;2023-10-31T10:50:06;15.00;99.90
39919;DHT22;25589;51.552;13.424;2023-10-31T10:55:17;16.00;99.90
39919;DHT22;25589;51.552;13.424;2023-10-31T11:00:20;15.90;99.90
39919;DHT22;25589;51.552;13.424;2023-10-31T11:02:51;15.40;99.90
39919;DHT22;25589;51.552;13.424;2023-10-31T11:05:18;15.30;99.90
39919;DHT22;25589;51.552;13.424;2023-10-31T11:07:44;15.10;99.90
39919;DHT22;25589;51.552;13.424;2023-10-31T11:10:11;14.80;99.90
39919;DHT22;25589;51.552;13.424;2023-10-31T11:12:37;15.00;99.90
39919;DHT22;25589;51.552;13.424;2023-10-31T11:15:07;14.90;99.90
39919;DHT22;25589;51.552;13.424;2023-10-31T11:17:37;15.20;99.90
39919;DHT22;25589;51.552;13.424;2023-10-31T11:20:04;14.80;99.90
39919;DHT22;25589;51.552;13.424;2023-10-31T11:22:44;14.80;99.90
39919;DHT22;25589;51.552;13.424;2023-10-31T11:25:17;14.80;99.90
39919;DHT22;25589;51.552;13.424;2023-10-31T11:27:45;14.90;99.90
39919;DHT22;25589;51.552;13.424;2023-10-31T11:30:33;14.80;99.90
39919;DHT22;25589;51.552;13.424;2023-10-31T11:32:59;14.80;99.90
39919;DHT22;25589;51.552;13.424;2023-10-31T11:35:29;14.90;99.90
39919;DHT22;25589;51.552;13.424;2023-10-31T11:38:06;14.60;99.90
39919;DHT22;25589;51.552;13.424;2023-10-31T11:40:36;14.90;99.90
39919;DHT22;25589;51.552;13.424;2023-10-31T11:43:06;14.90;99.90
39919;DHT22;25589;51.552;13.424;2023-10-31T11:45:41;14.80;99.90
39919;DHT22;25589;51.552;13.424;2023-10-31T11:48:08;15.50;99.90
39919;DHT22;25589;51.552;13.424;2023-10-31T11:50:36;14.80;99.90
39919;DHT22;25589;51.552;13.424;2023-10-31T11:53:13;15.20;99.90
39919;DHT22;25589;51.552;13.424;2023-10-31T11:55:43;14.80;99.90
39919;DHT22;25589;51.552;13.424;2023-10-31T11:58:19;14.60;99.90
39919;DHT22;25589;51.552;13.424;2023-10-31T12:00:47;15.20;99.90
39919;DHT22;25589;51.552;13.424;2023-10-31T12:03:16;14.70;99.90
39919;DHT22;25589;51.552;13.424;2023-10-31T12:05:51;14.80;99.90
39919;DHT22;25589;51.552;13.424;2023-10-31T12:08:31;14.70;99.90
39919;DHT22;25589;51.552;13.424;2023-10-31T12:11:14;14.40;99.90
39919;DHT22;25589;51.552;13.424;2023-10-31T12:13:56;14.60;99.90
39919;DHT22;25589;51.552;13.424;2023-10-31T12:16:27;14.60;99.90
39919;DHT22;25589;51.552;13.424;2023-10-31T12:19:04;14.60;99.90
39919;DHT22;25589;51.552;13.424;2023-10-31T12:24:06;15.20;99.90
39919;DHT22;25589;51.552;13.424;2023-10-31T12:26:33;14.50;99.90
39919;DHT22;25589;51.552;13.424;2023-10-31T12:29:14;14.50;99.90
39919;DHT22;25589;51.552;13.424;2023-10-31T12:31:50;14.50;99.90
39919;DHT22;25589;51.552;13.424;2023-10-31T12:34:19;14.50;99.90
39919;DHT22;25589;51.552;13.424;2023-10-31T12:36:46;14.40;99.90
39919;DHT22;25589;51.552;13.424;2023-10-31T12:39:13;14.30;99.90
39919;DHT22;25589;51.552;13.424;2023-10-31T12:41:40;13.60;99.90
39919;DHT22;25589;51.552;13.424;2023-10-31T12:44:06;13.80;99.90
39919;DHT22;25589;51.552;13.424;2023-10-31T12:46:38;14.20;99.90
39919;DHT22;25589;51.552;13.424;2023-10-31T12:49:04;14.20;99.90
39919;DHT22;25589;51.552;13.424;2023-10-31T12:51:29;13.40;99.90
39919;DHT22;25589;51.552;13.424;2023-10-31T12:53:55;13.20;99.90
39919;DHT22;25589;51.552;13.424;2023-10-31T12:56:40;13.10;99.90
39919;DHT22;25589;51.552;13.424;2023-10-31T12:59:10;13.00;99.90
39919;DHT22;25589;51.552;13.424;2023-10-31T13:01:42;12.50;99.90
39919;DHT22;25589;51.552;13.424;2023-10-31T13:04:09;13.20;99.90
39919;DHT22;25589;51.552;13.424;2023-10-31T13:06:35;13.40;99.90
39919;DHT22;25589;51.552;13.424;2023-10-31T13:09:01;13.70;99.90
39919;DHT22;25589;51.552;13.424;2023-10-31T13:11:31;13.90;99.90
39919;DHT22;25589;51.552;13.424;2023-10-31T13:13:57;14.10;99.90
39919;DHT22;25589;51.552;13.424;2023-10-31T13:16:24;14.50;99.90
39919;DHT22;25589;51.552;13.424;2023-10-31T13:18:52;14.30;99.90
39919;DHT22;25589;51.552;13.424;2023-10-31T13:21:19;14.90;99.90
39919;DHT22;25589;51.552;13.424;2023-10-31T13:23:45;14.40;99.90
39919;DHT22;25589;51.552;13.424;2023-10-31T13:26:13;14.40;99.90
39919;DHT22;25589;51.552;13.424;2023-10-31T13:28:38;14.30;99.90
39919;DHT22;25589;51.552;13.424;2023-10-31T13:31:05;14.20;99.90
39919;DHT22;25589;51.552;13.424;2023-10-31T13:33:31;13.90;99.90
39919;DHT22;25589;51.552;13.424;2023-10-31T13:35:56;14.00;99.90
39919;DHT22;25589;51.552;13.424;2023-10-31T13:38:22;13.90;99.90
39919;DHT22;25589;51.552;13.424;2023-10-31T13:40:47;14.10;99.90
39919;DHT22;25589;51.552;13.424;2023-10-31T13:43:13;13.90;99.90
39919;DHT22;25589;51.552;13.424;2023-10-31T13:45:39;13.90;99.90
39919;DHT22;25589;51.552;13.424;2023-10-31T13:48:04;13.90;99.90
39919;DHT22;25589;51.552;13.424;2023-10-31T13:50:30;13.90;99.90
39919;DHT22;25589;51.552;13.424;2023-10-31T13:52:56;13.90;99.90
39919;DHT22;25589;51.552;13.424;2023-10-31T13:55:21;13.90;99.90
39919;DHT22;25589;51.552;13.424;2023-10-31T13:57:49;13.90;99.90
39919;DHT22;25589;51.552;13.424;2023-10-31T14:00:15;14.10;99.90
39919;DHT22;25589;51.552;13.424;2023-10-31T14:02:41;13.80;99.90
39919;DHT22;25589;51.552;13.424;2023-10-31T14:05:06;13.80;99.90
39919;DHT22;25589;51.552;13.424;2023-10-31T14:07:33;13.80;99.90
39919;DHT22;25589;51.552;13.424;2023-10-31T14:10:00;13.90;99.90
39919;DHT22;25589;51.552;13.424;2023-10-31T14:12:26;13.70;99.90
39919;DHT22;25589;51.552;13.424;2023-10-31T14:14:53;13.90;99.90
39919;DHT22;25589;51.552;13.424;2023-10-31T14:17:19;13.90;99.90
39919;DHT22;25589;51.552;13.424;2023-10-31T14:19:44;14.00;99.90
39919;DHT22;25589;51.552;13.424;2023-10-31T14:22:12;13.70;99.90
39919;DHT22;25589;51.552;13.424;2023-10-31T14:24:38;13.40;99.90
39919;DHT22;25589;51.552;13.424;2023-10-31T14:27:03;13.90;99.90
39919;DHT22;25589;51.552;13.424;2023-10-31T14:29:29;13.80;99.90
39919;DHT22;25589;51.552;13.424;2023-10-31T14:31:54;13.80;99.90
39919;DHT22;25589;51.552;13.424;2023-10-31T14:34:21;13.80;99.90
39919;DHT22;25589;51.552;13.424;2023-10-31T14:36:46;14.30;99.90
39919;DHT22;25589;51.552;13.424;2023-10-31T14:39:12;13.30;99.90
39919;DHT22;25589;51.552;13.424;2023-10-31T14:41:39;13.80;99.90
39919;DHT22;25589;51.552;13.424;2023-10-31T14:44:05;14.00;99.90
39919;DHT22;25589;51.552;13.424;2023-10-31T14:46:30;13.80;99.90
39919;DHT22;25589;51.552;13.424;2023-10-31T14:48:57;13.80;99.90
39919;DHT22;25589;51.552;13.424;2023-10-31T14:51:23;13.80;99.90
39919;DHT22;25589;51.552;13.424;2023-10-31T14:53:48;13.70;99.90
39919;DHT22;25589;51.552;13.424;2023-10-31T14:56:14;13.10;99.90
39919;DHT22;25589;51.552;13.424;2023-10-31T14:58:40;13.50;99.90
39919;DHT22;25589;51.552;13.424;2023-10-31T15:01:07;13.70;99.90
39919;DHT22;25589;51.552;13.424;2023-10-31T15:03:33;13.70;99.90
39919;DHT22;25589;51.552;13.424;2023-10-31T15:05:58;14.50;99.90
39919;DHT22;25589;51.552;13.424;2023-10-31T15:08:24;13.60;99.90
39919;DHT22;25589;51.552;13.424;2023-10-31T15:10:52;13.70;99.90
39919;DHT22;25589;51.552;13.424;2023-10-31T15:13:17;13.60;99.90
39919;DHT22;25589;51.552;13.424;2023-10-31T15:15:43;13.60;99.90
39919;DHT22;25589;51.552;13.424;2023-10-31T15:18:09;13.60;99.90
39919;DHT22;25589;51.552;13.424;2023-10-31T15:20:34;13.60;99.90
39919;DHT22;25589;51.552;13.424;2023-10-31T15:23:00;13.60;99.90
39919;DHT22;25589;51.552;13.424;2023-10-31T15:25:25;13.50;99.90